Noank, Connecticut
Current Conditions -  °F | °C
As of 2:56 AM on Thursday 29 Jan 2015 (Local Time) from KGON Reporting Station
Clear Clear  
Wind Chill:   Ceiling: Unl
Heat Index: 13°   Visibility: 10mi
Dew Point: -2°   Wind: 9mph
Humidity: 51%   Direction: 350°N
Pressure: 30.28"   Gusts: NA
Location:  41.3595°N, 72.0439°W
Report Text: KGON 290756Z AUTO 35008KT 10SM CLR M11/M19 A3028 RMK AO2 SLP253 T11061189
Loading
Personal Weather Stations






























Interactive Weather Map New forecast layout! Learn more

10-Day Weather Forecast

Advertisements
Track Severe Weather on mobile